Time;durP1;ratioP1;P1;durP2;ratioP2;P2;SDS_P1;SDS_P2;PMS_P1;PMS_P2;Temp;Humidity;BMP_temperature;BMP_pressure;BME280_temperature;BME280_humidity;BME280_pressure;Samples;Min_cycle;Max_cycle;Signal;HPM_P1;HPM_P2
2022/01/23 00:00:16;;;;;;;12.77;5.05;;;5.40;99.90;;;;;;5039098;28;20047;-63
2022/01/23 00:02:46;;;;;;;13.07;5.07;;;5.40;99.90;;;;;;5024474;28;20144;-65
2022/01/23 00:05:14;;;;;;;12.48;5.10;;;5.40;99.90;;;;;;5039151;28;20060;-64
2022/01/23 00:07:41;;;;;;;16.60;5.20;;;5.40;99.90;;;;;;5037172;28;20037;-65
2022/01/23 00:10:09;;;;;;;11.35;4.90;;;5.40;99.90;;;;;;5044240;28;20060;-63
2022/01/23 00:12:42;;;;;;;13.35;5.22;;;5.40;99.90;;;;;;5039689;28;20115;-65
2022/01/23 00:17:53;;;;;;;14.93;4.72;;;5.40;99.90;;;;;;5036041;28;20041;-64
2022/01/23 00:20:19;;;;;;;10.77;5.10;;;5.40;99.90;;;;;;5035458;28;20037;-63
2022/01/23 00:22:48;;;;;;;16.50;5.72;;;5.40;99.90;;;;;;5037467;28;20056;-65
2022/01/23 00:30:43;;;;;;;11.18;5.15;;;5.30;99.90;;;;;;5035602;28;20114;-64
2022/01/23 00:33:10;;;;;;;13.05;5.20;;;5.30;99.90;;;;;;5036453;28;20049;-65
2022/01/23 00:35:39;;;;;;;11.82;5.60;;;5.30;99.90;;;;;;5044112;28;20044;-63
2022/01/23 00:38:06;;;;;;;12.00;5.05;;;5.30;99.90;;;;;;5035995;28;20456;-63
2022/01/23 00:40:33;;;;;;;15.55;5.35;;;5.30;99.90;;;;;;5039187;28;20078;-64
2022/01/23 00:43:00;;;;;;;11.65;5.40;;;5.30;99.90;;;;;;5033934;28;20444;-64
2022/01/23 00:45:32;;;;;;;10.70;5.30;;;5.20;99.90;;;;;;5053410;28;20094;-64
2022/01/23 00:48:09;;;;;;;9.93;4.95;;;5.30;99.90;;;;;;5036756;28;20682;-63
2022/01/23 00:50:45;;;;;;;9.65;4.95;;;5.20;99.90;;;;;;5035979;28;20046;-64
2022/01/23 00:53:13;;;;;;;17.80;6.22;;;5.30;99.90;;;;;;5051882;28;20041;-64
2022/01/23 00:55:41;;;;;;;10.43;5.40;;;5.20;99.90;;;;;;5035989;28;20045;-64
2022/01/23 00:58:07;;;;;;;10.63;5.18;;;5.30;99.90;;;;;;5036568;28;20068;-64
2022/01/23 01:00:32;;;;;;;11.68;4.97;;;5.30;99.90;;;;;;5021200;28;20105;-64
2022/01/23 01:02:58;;;;;;;9.93;5.47;;;5.30;99.90;;;;;;5035814;28;20092;-63
2022/01/23 01:05:26;;;;;;;10.65;5.00;;;5.30;99.90;;;;;;5036972;28;20200;-64
2022/01/23 01:07:56;;;;;;;10.95;5.57;;;5.30;99.90;;;;;;5038560;28;20041;-64
2022/01/23 01:10:28;;;;;;;16.77;5.82;;;5.30;99.90;;;;;;5020127;28;20134;-63
2022/01/23 01:12:58;;;;;;;11.63;5.38;;;5.30;99.90;;;;;;5052581;28;20166;-65
2022/01/23 01:31:28;;;;;;;10.23;4.63;;;5.30;99.90;;;;;;5036523;28;20056;-64
2022/01/23 01:34:02;;;;;;;13.43;4.80;;;5.30;99.90;;;;;;5036568;28;20098;-64
2022/01/23 01:36:45;;;;;;;8.57;4.80;;;5.30;99.90;;;;;;5035005;28;20204;-65
2022/01/23 01:39:11;;;;;;;12.13;5.15;;;5.30;99.90;;;;;;5032775;28;20144;-64
2022/01/23 01:41:39;;;;;;;11.05;4.60;;;5.30;99.90;;;;;;5035346;28;20159;-64
2022/01/23 01:44:05;;;;;;;13.18;5.40;;;5.30;99.90;;;;;;5038390;28;20095;-63
2022/01/23 01:46:31;;;;;;;11.50;5.40;;;5.30;99.90;;;;;;5037722;28;20128;-65
2022/01/23 01:48:57;;;;;;;15.68;5.65;;;5.30;99.90;;;;;;5035686;28;20544;-64
2022/01/23 01:51:24;;;;;;;12.90;4.97;;;5.30;99.90;;;;;;5036863;28;20476;-63
2022/01/23 01:53:57;;;;;;;16.73;5.60;;;5.30;99.90;;;;;;5035789;28;20048;-63
2022/01/23 01:56:22;;;;;;;11.65;5.35;;;5.30;99.90;;;;;;5037195;28;20068;-64
2022/01/23 02:09:35;;;;;;;11.15;4.72;;;5.30;99.90;;;;;;5035787;28;20080;-65
2022/01/23 02:15:15;;;;;;;10.13;4.78;;;5.30;99.90;;;;;;5034042;28;20041;-64
2022/01/23 02:23:52;;;;;;;10.10;4.80;;;5.30;99.90;;;;;;5034842;28;20064;-63
2022/01/23 02:50:54;;;;;;;12.43;5.72;;;5.30;99.90;;;;;;5054911;28;20477;-63
2022/01/23 02:56:00;;;;;;;13.80;5.47;;;5.30;99.90;;;;;;5036268;28;20099;-65
2022/01/23 02:58:34;;;;;;;12.77;5.38;;;5.30;99.90;;;;;;5033999;28;20112;-64
2022/01/23 03:01:14;;;;;;;13.82;5.50;;;5.30;99.90;;;;;;5040416;28;20043;-64
2022/01/23 03:03:44;;;;;;;;;;;5.30;99.90;;;;;;5037992;28;20040;-64
2022/01/23 03:32:36;;;;;;;20.08;5.72;;;5.30;99.90;;;;;;5038952;28;20182;-65
2022/01/23 03:35:04;;;;;;;16.15;6.32;;;5.30;99.90;;;;;;5033416;28;20079;-65
2022/01/23 03:37:30;;;;;;;12.50;5.45;;;5.30;99.90;;;;;;5032263;28;20041;-64
2022/01/23 03:39:55;;;;;;;14.93;5.57;;;5.30;99.90;;;;;;5038921;28;22520;-63
2022/01/23 03:42:21;;;;;;;15.95;6.10;;;5.30;99.90;;;;;;5043645;28;20109;-65
2022/01/23 03:45:07;;;;;;;16.92;5.93;;;5.30;99.90;;;;;;5044167;28;20286;-63
2022/01/23 03:47:52;;;;;;;13.00;5.63;;;5.30;99.90;;;;;;5036827;28;20029;-65
2022/01/23 03:50:18;;;;;;;13.73;5.60;;;5.30;99.90;;;;;;5035288;28;20040;-63
2022/01/23 03:52:43;;;;;;;11.95;5.72;;;5.40;99.90;;;;;;5037322;28;20528;-64
2022/01/23 03:55:10;;;;;;;14.02;5.93;;;5.30;99.90;;;;;;5035714;28;20033;-64
2022/01/23 03:57:35;;;;;;;15.18;5.80;;;5.30;99.90;;;;;;5036300;28;20058;-64
2022/01/23 04:00:03;;;;;;;13.05;5.93;;;5.30;99.90;;;;;;5036806;28;20029;-65
2022/01/23 04:02:29;;;;;;;14.70;5.85;;;5.30;99.90;;;;;;5041794;28;20136;-64
2022/01/23 04:04:55;;;;;;;11.55;5.95;;;5.30;99.90;;;;;;5046878;28;20135;-64
2022/01/23 04:07:27;;;;;;;14.38;6.10;;;5.30;99.90;;;;;;5049779;28;20120;-64
2022/01/23 04:09:53;;;;;;;20.70;6.22;;;5.30;99.90;;;;;;5048942;28;20145;-64
2022/01/23 04:15:09;;;;;;;11.00;5.60;;;5.30;99.90;;;;;;5048179;28;20045;-64
2022/01/23 04:18:28;;;;;;;13.75;5.90;;;5.30;99.90;;;;;;5049310;28;20464;-64
2022/01/23 04:20:49;;;;;;;15.15;6.38;;;5.30;99.90;;;;;;5038146;28;20052;-64
2022/01/23 04:45:29;;;;;;;15.65;6.45;;;5.30;99.90;;;;;;5034909;28;20064;-63
2022/01/23 05:04:31;;;;;;;14.80;6.35;;;5.30;99.90;;;;;;5034900;28;20683;-63
2022/01/23 05:07:02;;;;;;;16.83;6.80;;;5.30;99.90;;;;;;5036772;28;20033;-63
2022/01/23 05:09:29;;;;;;;19.92;6.50;;;5.30;99.90;;;;;;5036062;28;20052;-64
2022/01/23 05:12:00;;;;;;;18.67;6.13;;;5.30;99.90;;;;;;5039413;28;20048;-63
2022/01/23 05:14:36;;;;;;;16.95;6.20;;;5.30;99.90;;;;;;5040925;28;20049;-64
2022/01/23 05:17:04;;;;;;;11.57;5.85;;;5.30;99.90;;;;;;5047579;28;20519;-64
2022/01/23 05:19:30;;;;;;;16.75;6.03;;;5.30;99.90;;;;;;5040609;28;20029;-64
2022/01/23 05:24:40;;;;;;;12.35;5.88;;;5.30;99.90;;;;;;5061095;28;20497;-63
2022/01/23 05:27:09;;;;;;;13.40;5.50;;;5.30;99.90;;;;;;5056011;28;20049;-65
2022/01/23 05:29:35;;;;;;;11.48;5.47;;;5.30;99.90;;;;;;5034922;28;20545;-65
2022/01/23 05:32:02;;;;;;;9.05;4.80;;;5.30;99.90;;;;;;5038628;28;20032;-63
2022/01/23 05:34:28;;;;;;;11.10;5.03;;;5.30;99.90;;;;;;5036633;28;20726;-63
2022/01/23 05:36:53;;;;;;;16.13;5.28;;;5.30;99.90;;;;;;5032333;28;20165;-63
2022/01/23 05:39:21;;;;;;;12.15;5.50;;;5.30;99.90;;;;;;5019428;28;20103;-63
2022/01/23 05:41:52;;;;;;;12.98;4.88;;;5.30;99.90;;;;;;5039922;28;20400;-64
2022/01/23 05:44:18;;;;;;;12.93;5.05;;;5.30;99.90;;;;;;5039929;28;20045;-64
2022/01/23 05:46:43;;;;;;;13.98;5.88;;;5.30;99.90;;;;;;5048358;28;20103;-63
2022/01/23 05:49:09;;;;;;;13.27;5.22;;;5.30;99.90;;;;;;5047880;28;20122;-63
2022/01/23 05:51:34;;;;;;;15.40;5.97;;;5.30;99.90;;;;;;5041114;28;20037;-63
2022/01/23 05:54:00;;;;;;;13.00;5.75;;;5.30;99.90;;;;;;5035573;28;20461;-64
2022/01/23 05:56:26;;;;;;;13.57;5.55;;;5.30;99.90;;;;;;5018739;28;20136;-65
2022/01/23 05:58:51;;;;;;;13.27;5.88;;;5.30;99.90;;;;;;5039232;28;20029;-63
2022/01/23 06:01:17;;;;;;;15.95;5.63;;;5.30;99.90;;;;;;5036580;28;20037;-63
2022/01/23 06:03:42;;;;;;;13.43;5.80;;;5.30;99.90;;;;;;5034961;28;20044;-65
2022/01/23 06:06:08;;;;;;;13.40;5.72;;;5.30;99.90;;;;;;5057092;28;20048;-63
2022/01/23 06:08:33;;;;;;;15.13;6.00;;;5.30;99.90;;;;;;5018080;28;20033;-64
2022/01/23 06:10:59;;;;;;;13.70;6.05;;;5.30;99.90;;;;;;5037274;28;20050;-64
2022/01/23 06:13:26;;;;;;;13.90;6.07;;;5.30;99.90;;;;;;5040986;28;20043;-64
2022/01/23 06:15:53;;;;;;;12.27;6.20;;;5.30;99.90;;;;;;5042366;28;20123;-64
2022/01/23 06:18:19;;;;;;;12.90;5.97;;;5.30;99.90;;;;;;5035438;28;20090;-63
2022/01/23 06:20:45;;;;;;;16.15;6.13;;;5.30;99.90;;;;;;5034926;28;20033;-65
2022/01/23 06:23:11;;;;;;;13.27;5.80;;;5.30;99.90;;;;;;5034171;28;20079;-64
2022/01/23 06:25:37;;;;;;;15.80;5.80;;;5.30;99.90;;;;;;5015320;28;20072;-64
2022/01/23 06:28:05;;;;;;;14.00;5.90;;;5.30;99.90;;;;;;5033927;28;20098;-63
2022/01/23 06:30:31;;;;;;;12.15;6.45;;;5.30;99.90;;;;;;5037283;28;20123;-63
2022/01/23 06:32:57;;;;;;;14.05;6.63;;;5.30;99.90;;;;;;5040072;28;20061;-64
2022/01/23 06:35:22;;;;;;;15.23;6.07;;;5.30;99.90;;;;;;5043328;28;20067;-63
2022/01/23 06:37:48;;;;;;;13.63;6.60;;;5.30;99.90;;;;;;5034567;28;20033;-63
2022/01/23 06:40:14;;;;;;;17.75;6.35;;;5.30;99.90;;;;;;5036892;28;20089;-64
2022/01/23 06:42:39;;;;;;;17.17;6.50;;;5.30;99.90;;;;;;5034987;28;20045;-63
2022/01/23 06:45:05;;;;;;;16.02;7.00;;;5.30;99.90;;;;;;5038455;28;20044;-63
2022/01/23 06:47:31;;;;;;;14.38;6.18;;;5.30;99.90;;;;;;5039387;28;21017;-65
2022/01/23 06:49:57;;;;;;;11.07;6.43;;;5.30;99.90;;;;;;5037373;28;20911;-63
2022/01/23 06:52:23;;;;;;;15.00;6.30;;;5.20;99.90;;;;;;5040452;28;20048;-63
2022/01/23 06:54:49;;;;;;;12.43;5.82;;;5.20;99.90;;;;;;5047180;28;20037;-64
2022/01/23 06:57:14;;;;;;;16.48;6.50;;;5.20;99.90;;;;;;5040704;28;20037;-65
2022/01/23 06:59:40;;;;;;;11.95;5.78;;;5.20;99.90;;;;;;5032147;28;20496;-65
2022/01/23 07:02:06;;;;;;;13.45;6.80;;;5.20;99.90;;;;;;5054183;28;20122;-63
2022/01/23 07:04:31;;;;;;;15.52;6.70;;;5.20;99.90;;;;;;5040659;28;20423;-64
2022/01/23 07:06:57;;;;;;;12.55;6.10;;;5.20;99.90;;;;;;5038365;28;20035;-63
2022/01/23 07:09:23;;;;;;;14.00;6.43;;;5.20;99.90;;;;;;5038147;28;20061;-64
2022/01/23 07:11:48;;;;;;;12.70;6.05;;;5.20;99.90;;;;;;5046291;28;20075;-64
2022/01/23 07:14:14;;;;;;;10.50;6.13;;;5.20;99.90;;;;;;5035986;28;20041;-64
2022/01/23 07:16:39;;;;;;;11.50;6.32;;;5.20;99.90;;;;;;5052329;28;20036;-63
2022/01/23 07:19:05;;;;;;;13.45;6.50;;;5.20;99.90;;;;;;5048047;28;20044;-63
2022/01/23 07:21:30;;;;;;;17.77;6.57;;;5.20;99.90;;;;;;5050449;28;20037;-64
2022/01/23 07:23:56;;;;;;;16.27;6.18;;;5.20;99.90;;;;;;5049658;28;20060;-63
2022/01/23 07:26:25;;;;;;;9.45;5.40;;;5.20;99.90;;;;;;5049975;28;20182;-64
2022/01/23 07:28:53;;;;;;;14.70;6.30;;;5.20;99.90;;;;;;5048995;28;20045;-63
2022/01/23 07:34:02;;;;;;;15.77;6.90;;;5.20;99.90;;;;;;5043682;28;20489;-63
2022/01/23 07:36:28;;;;;;;13.13;6.68;;;5.20;99.90;;;;;;5040573;28;20044;-63
2022/01/23 07:38:54;;;;;;;15.13;6.35;;;5.20;99.90;;;;;;5038634;28;20025;-64
2022/01/23 07:41:19;;;;;;;15.35;6.22;;;5.20;99.90;;;;;;5050287;28;20041;-64
2022/01/23 07:43:45;;;;;;;12.68;5.88;;;5.20;99.90;;;;;;5041352;28;20073;-64
2022/01/23 07:46:11;;;;;;;13.25;6.18;;;5.30;99.90;;;;;;5031083;28;20445;-63
2022/01/23 07:48:36;;;;;;;12.57;6.13;;;5.30;99.90;;;;;;5039321;28;20121;-64
2022/01/23 07:51:02;;;;;;;12.95;6.22;;;5.20;99.90;;;;;;5034062;28;20037;-64
2022/01/23 07:53:27;;;;;;;12.57;6.18;;;5.30;99.90;;;;;;5038517;28;20059;-64
2022/01/23 07:55:53;;;;;;;13.65;6.10;;;5.30;99.90;;;;;;5043898;28;20489;-64
2022/01/23 07:58:18;;;;;;;12.43;6.22;;;5.30;99.90;;;;;;5048984;28;20134;-63
2022/01/23 08:00:44;;;;;;;12.70;6.22;;;5.30;99.90;;;;;;5050475;28;20338;-64
2022/01/23 08:03:10;;;;;;;14.52;6.47;;;5.30;99.90;;;;;;5049219;28;20123;-64
2022/01/23 08:05:37;;;;;;;14.85;6.22;;;5.30;99.90;;;;;;5047904;28;20513;-63
2022/01/23 08:08:02;;;;;;;10.40;6.05;;;5.40;99.90;;;;;;5045199;28;20049;-64
2022/01/23 08:10:28;;;;;;;12.35;6.35;;;5.30;99.90;;;;;;5066330;28;20067;-64
2022/01/23 08:12:54;;;;;;;13.32;6.10;;;5.40;99.90;;;;;;5045949;28;20046;-64
2022/01/23 08:15:19;;;;;;;14.48;6.53;;;5.30;99.90;;;;;;5049863;28;20033;-64
2022/01/23 08:17:45;;;;;;;16.23;6.70;;;5.40;99.90;;;;;;5050135;28;20037;-63
2022/01/23 08:20:10;;;;;;;15.63;6.82;;;5.40;99.90;;;;;;5031848;28;20421;-64
2022/01/23 08:22:36;;;;;;;13.63;6.63;;;5.40;99.90;;;;;;5049588;28;20090;-63
2022/01/23 08:25:03;;;;;;;13.55;6.60;;;5.40;99.90;;;;;;5050248;28;20480;-63
2022/01/23 08:27:29;;;;;;;14.23;6.57;;;5.50;99.90;;;;;;5056990;28;20064;-65
2022/01/23 08:29:55;;;;;;;15.43;6.68;;;5.40;99.90;;;;;;5043601;28;20034;-64
2022/01/23 08:32:21;;;;;;;13.25;6.78;;;5.50;99.90;;;;;;5041986;28;20458;-63
2022/01/23 08:34:48;;;;;;;13.70;6.88;;;5.50;99.90;;;;;;5049336;28;20037;-63
2022/01/23 08:37:14;;;;;;;14.63;6.47;;;5.50;99.90;;;;;;5046244;28;20041;-64
2022/01/23 08:39:40;;;;;;;16.77;7.22;;;5.60;99.90;;;;;;5032678;28;20068;-64
2022/01/23 08:42:09;;;;;;;14.50;7.38;;;5.50;99.90;;;;;;5047061;28;20493;-65
2022/01/23 08:44:36;;;;;;;15.45;6.75;;;5.60;99.90;;;;;;5045861;28;20044;-63
2022/01/23 08:47:02;;;;;;;14.88;6.75;;;5.60;99.90;;;;;;5048827;28;20079;-64
2022/01/23 08:49:29;;;;;;;15.77;6.72;;;5.60;99.90;;;;;;5049576;28;20099;-63
2022/01/23 08:51:56;;;;;;;13.95;6.78;;;5.70;99.90;;;;;;5031517;28;20116;-64
2022/01/23 08:54:22;;;;;;;13.30;6.13;;;5.70;99.90;;;;;;5036403;28;20124;-63
2022/01/23 08:56:48;;;;;;;15.45;6.90;;;5.70;99.90;;;;;;5027165;28;20048;-63
2022/01/23 08:59:14;;;;;;;13.85;6.53;;;5.80;99.90;;;;;;5047690;28;20422;-64
2022/01/23 09:01:40;;;;;;;11.85;5.90;;;5.80;99.90;;;;;;5048862;28;20060;-64
2022/01/23 09:04:07;;;;;;;14.00;6.45;;;5.90;99.90;;;;;;5046899;28;20048;-63
2022/01/23 09:06:33;;;;;;;11.13;5.95;;;5.90;99.90;;;;;;5046242;28;20140;-63
2022/01/23 09:09:00;;;;;;;12.45;6.65;;;5.90;99.90;;;;;;5045354;28;20537;-63
2022/01/23 09:14:10;;;;;;;12.32;5.93;;;6.00;99.90;;;;;;5036007;28;20322;-64
2022/01/23 09:16:43;;;;;;;12.10;5.35;;;6.00;99.90;;;;;;5031890;28;20444;-63
2022/01/23 09:19:11;;;;;;;8.98;4.72;;;6.00;99.90;;;;;;5046637;28;20049;-64
2022/01/23 09:21:38;;;;;;;8.52;4.93;;;6.00;99.90;;;;;;5045460;28;20129;-64
2022/01/23 09:24:05;;;;;;;8.45;4.70;;;6.10;99.90;;;;;;5045027;28;20055;-64
2022/01/23 09:26:31;;;;;;;10.98;5.25;;;6.10;99.90;;;;;;5031598;28;20086;-64
2022/01/23 09:29:00;;;;;;;9.63;5.20;;;6.10;99.90;;;;;;5042094;28;20041;-63
2022/01/23 09:33:53;;;;;;;11.13;4.63;;;6.20;99.90;;;;;;5048257;28;20136;-64
2022/01/23 09:36:18;;;;;;;9.55;5.40;;;6.30;99.90;;;;;;5047827;28;20128;-63
2022/01/23 09:38:44;;;;;;;8.93;4.82;;;6.30;99.90;;;;;;5045239;28;20037;-64
2022/01/23 09:41:10;;;;;;;7.10;4.57;;;6.40;99.90;;;;;;5048738;28;20391;-64
2022/01/23 09:43:39;;;;;;;8.57;4.18;;;6.40;99.90;;;;;;5048099;28;20469;-63
2022/01/23 09:46:07;;;;;;;9.80;5.75;;;6.40;99.90;;;;;;5046663;28;20040;-64
2022/01/23 09:48:35;;;;;;;20.95;11.90;;;6.50;99.90;;;;;;5045269;28;20144;-63
2022/01/23 09:51:02;;;;;;;13.50;8.02;;;6.50;99.90;;;;;;5046000;28;20037;-64
2022/01/23 09:53:29;;;;;;;12.00;6.35;;;6.60;99.90;;;;;;5046314;28;20029;-63
2022/01/23 09:55:59;;;;;;;13.80;8.23;;;6.60;99.90;;;;;;5049972;28;20041;-63
2022/01/23 09:58:25;;;;;;;10.50;6.28;;;6.70;99.90;;;;;;5062037;28;20047;-63
2022/01/23 10:00:51;;;;;;;9.65;5.20;;;6.70;99.90;;;;;;5050382;28;20028;-64
2022/01/23 10:03:19;;;;;;;5.15;3.80;;;6.80;99.90;;;;;;5046653;28;20045;-63
2022/01/23 10:05:48;;;;;;;6.20;3.97;;;6.80;99.90;;;;;;5063701;28;20076;-64
2022/01/23 10:08:15;;;;;;;5.43;3.58;;;6.90;99.90;;;;;;5029206;28;20033;-63
2022/01/23 10:10:41;;;;;;;4.75;3.42;;;6.90;99.90;;;;;;5048779;28;20541;-63
2022/01/23 10:13:06;;;;;;;4.47;3.10;;;6.90;99.90;;;;;;5048793;28;20045;-63
2022/01/23 10:15:33;;;;;;;5.30;2.78;;;6.90;99.90;;;;;;5044706;28;20314;-63
2022/01/23 10:18:00;;;;;;;5.55;2.95;;;6.90;99.90;;;;;;5047056;28;20060;-63
2022/01/23 10:20:26;;;;;;;4.78;2.38;;;7.00;99.90;;;;;;5046623;28;20033;-63
2022/01/23 10:22:54;;;;;;;4.43;2.22;;;7.00;99.90;;;;;;5048593;28;20036;-64
2022/01/23 10:25:23;;;;;;;2.85;2.22;;;7.10;99.90;;;;;;5062790;28;20505;-64
2022/01/23 10:28:07;;;;;;;3.97;2.00;;;7.10;99.90;;;;;;5046606;28;20045;-64
2022/01/23 10:30:38;;;;;;;5.80;3.10;;;7.20;99.90;;;;;;5040938;28;20040;-63
2022/01/23 10:33:14;;;;;;;3.03;1.95;;;7.20;99.90;;;;;;5047755;28;20088;-64
2022/01/23 10:36:03;;;;;;;3.17;2.40;;;7.30;99.90;;;;;;5044632;28;20041;-65
2022/01/23 10:38:30;;;;;;;4.55;2.40;;;7.20;99.90;;;;;;5047940;28;20368;-64
2022/01/23 10:41:08;;;;;;;2.88;1.92;;;7.30;99.90;;;;;;5045588;28;20430;-64
2022/01/23 10:49:02;;;;;;;3.45;1.70;;;7.40;99.90;;;;;;5045787;28;20092;-63
2022/01/23 10:51:36;;;;;;;3.55;1.70;;;7.40;99.90;;;;;;5042203;28;20033;-62
2022/01/23 10:54:16;;;;;;;3.72;1.70;;;7.40;99.90;;;;;;5049163;28;20117;-63
2022/01/23 10:57:07;;;;;;;2.90;1.40;;;7.40;99.90;;;;;;5046712;28;20040;-63
2022/01/23 10:59:44;;;;;;;1.55;1.10;;;7.50;99.90;;;;;;5063881;28;20067;-63
2022/01/23 11:02:21;;;;;;;2.00;1.10;;;7.40;99.90;;;;;;5045962;28;20045;-64
2022/01/23 11:04:57;;;;;;;1.25;0.80;;;7.50;99.90;;;;;;5029715;28;20151;-64
2022/01/23 11:07:24;;;;;;;2.00;1.10;;;7.50;99.90;;;;;;5047833;28;20048;-63
2022/01/23 11:09:56;;;;;;;1.52;1.00;;;7.50;99.90;;;;;;5045959;28;20052;-65
2022/01/23 11:18:38;;;;;;;0.85;0.50;;;7.30;99.90;;;;;;5046867;28;20048;-64
2022/01/23 11:21:34;;;;;;;0.98;0.57;;;7.20;99.90;;;;;;5044390;28;20048;-64
2022/01/23 11:23:59;;;;;;;3.00;0.77;;;7.20;99.90;;;;;;5043503;28;20057;-63
2022/01/23 11:26:27;;;;;;;0.90;0.50;;;7.30;99.90;;;;;;5045147;28;20110;-64
2022/01/23 11:28:54;;;;;;;1.15;0.57;;;7.30;99.90;;;;;;5046572;28;20048;-63
2022/01/23 11:31:22;;;;;;;1.02;0.90;;;7.30;99.90;;;;;;5047236;28;20051;-64
2022/01/23 11:33:50;;;;;;;1.15;1.05;;;7.30;99.90;;;;;;5049226;28;20067;-64
2022/01/23 11:36:18;;;;;;;1.10;0.50;;;7.30;99.90;;;;;;5051261;28;20037;-64
2022/01/23 11:38:46;;;;;;;0.60;0.60;;;7.30;99.90;;;;;;5049734;28;20045;-64
2022/01/23 11:55:32;;;;;;;1.52;0.70;;;7.20;99.90;;;;;;5062862;28;20045;-64
2022/01/23 11:57:59;;;;;;;1.60;0.70;;;7.20;99.90;;;;;;5048314;28;20048;-65
2022/01/23 12:00:37;;;;;;;1.08;0.50;;;7.10;99.90;;;;;;5051734;28;20033;-64
2022/01/23 12:03:19;;;;;;;1.13;0.70;;;7.00;99.90;;;;;;5049609;28;20047;-64
2022/01/23 12:05:47;;;;;;;1.38;0.60;;;7.00;99.90;;;;;;5032585;28;20040;-64
2022/01/23 12:08:19;;;;;;;0.82;0.60;;;7.00;99.90;;;;;;5049145;28;20461;-65
2022/01/23 12:16:20;;;;;;;1.65;0.57;;;7.00;99.90;;;;;;5042349;28;20587;-64
2022/01/23 12:17:38;;;;;;;5.05;2.35;;;7.00;99.90;;;;;;5044071;28;20052;-65
2022/01/23 12:20:05;;;;;;;2.22;1.42;;;7.10;99.90;;;;;;5030440;28;20048;-64
2022/01/23 12:22:37;;;;;;;1.00;0.77;;;7.10;99.90;;;;;;5050297;28;20381;-64
2022/01/23 12:25:24;;;;;;;0.65;0.47;;;7.10;99.90;;;;;;5031055;28;20127;-65
2022/01/23 12:28:16;;;;;;;3.53;0.50;;;7.00;99.90;;;;;;5047011;28;20054;-64
2022/01/23 12:30:44;;;;;;;1.00;0.60;;;7.00;99.90;;;;;;5048485;28;20123;-64
2022/01/23 12:33:18;;;;;;;0.75;0.45;;;7.10;99.90;;;;;;5048746;28;20128;-64
2022/01/23 12:35:46;;;;;;;0.80;0.80;;;7.10;99.90;;;;;;5047882;28;20056;-65
2022/01/23 12:38:13;;;;;;;0.90;0.50;;;7.20;99.90;;;;;;5049050;28;20087;-64
2022/01/23 12:40:47;;;;;;;0.50;0.50;;;7.20;99.90;;;;;;5048846;28;20041;-64
2022/01/23 12:43:24;;;;;;;1.15;0.70;;;7.10;99.90;;;;;;5048174;28;20122;-64
2022/01/23 12:45:58;;;;;;;0.63;0.45;;;7.20;99.90;;;;;;5049001;28;20041;-64
2022/01/23 12:48:27;;;;;;;1.00;0.40;;;7.20;99.90;;;;;;5047702;28;20123;-64
2022/01/23 12:51:20;;;;;;;0.80;0.53;;;7.20;99.90;;;;;;5048902;28;20130;-65
2022/01/23 12:53:46;;;;;;;0.60;0.52;;;7.20;99.90;;;;;;5040467;28;20426;-65
2022/01/23 12:56:17;;;;;;;1.23;0.50;;;7.10;99.90;;;;;;5048291;28;20156;-65
2022/01/23 12:58:50;;;;;;;1.15;0.52;;;7.10;99.90;;;;;;5048990;28;20346;-64
2022/01/23 13:01:19;;;;;;;0.82;0.47;;;7.10;99.90;;;;;;5048894;28;20071;-64
2022/01/23 13:04:11;;;;;;;0.50;0.50;;;7.10;99.90;;;;;;5045405;28;20110;-64
2022/01/23 13:06:39;;;;;;;1.35;0.60;;;7.20;99.90;;;;;;5046083;28;20057;-65
2022/01/23 13:09:36;;;;;;;0.77;0.50;;;7.20;99.90;;;;;;5046242;28;20138;-64
2022/01/23 13:12:12;;;;;;;2.20;0.65;;;7.20;99.90;;;;;;5025257;28;20045;-64
2022/01/23 13:17:54;;;;;;;1.95;0.70;;;7.10;99.90;;;;;;5045541;28;20041;-64
2022/01/23 13:31:57;;;;;;;2.53;1.02;;;7.00;99.90;;;;;;5044946;28;20121;-65
2022/01/23 13:34:40;;;;;;;1.73;1.00;;;7.00;99.90;;;;;;5045905;28;20047;-64
2022/01/23 13:37:10;;;;;;;2.95;1.10;;;7.00;99.90;;;;;;5032951;28;20041;-61
2022/01/23 13:39:44;;;;;;;1.52;0.95;;;7.00;99.90;;;;;;5031487;28;20174;-65
2022/01/23 13:42:25;;;;;;;1.58;1.00;;;6.90;99.90;;;;;;5047277;28;20124;-63
2022/01/23 13:48:07;;;;;;;2.00;1.20;;;7.00;99.90;;;;;;5044885;28;20095;-64
2022/01/23 13:53:20;;;;;;;2.78;1.40;;;6.90;99.90;;;;;;5044454;28;20053;-63
2022/01/23 13:58:35;;;;;;;4.75;1.90;;;6.90;99.90;;;;;;5042016;28;20052;-63
2022/01/23 14:01:19;;;;;;;4.47;1.95;;;6.80;99.90;;;;;;5045721;28;20060;-64
2022/01/23 14:03:45;;;;;;;3.22;1.83;;;6.70;99.90;;;;;;5042210;28;20699;-63
2022/01/23 14:06:12;;;;;;;3.08;1.77;;;6.80;99.90;;;;;;5047367;28;20507;-63
2022/01/23 14:08:37;;;;;;;2.78;1.55;;;6.80;99.90;;;;;;5045970;28;20420;-63
2022/01/23 14:11:03;;;;;;;2.80;1.65;;;6.80;99.90;;;;;;5046614;28;20102;-63
2022/01/23 14:13:30;;;;;;;3.63;1.63;;;6.70;99.90;;;;;;5045444;28;20048;-64
2022/01/23 14:15:56;;;;;;;3.10;1.85;;;6.70;99.90;;;;;;5049326;28;20040;-63
2022/01/23 14:18:24;;;;;;;3.25;1.75;;;6.70;99.90;;;;;;5046697;28;20481;-63
2022/01/23 14:21:03;;;;;;;4.20;2.13;;;6.70;99.90;;;;;;5048213;28;20052;-64
2022/01/23 14:23:30;;;;;;;4.05;2.00;;;6.70;99.90;;;;;;5016044;28;20069;-63
2022/01/23 14:26:03;;;;;;;3.47;1.50;;;6.70;99.90;;;;;;5046635;28;20109;-64
2022/01/23 14:28:43;;;;;;;2.75;1.58;;;6.70;99.90;;;;;;5037211;28;20414;-64
2022/01/23 14:31:20;;;;;;;2.33;1.37;;;6.70;99.90;;;;;;5046597;28;20083;-64
2022/01/23 14:33:51;;;;;;;2.38;1.50;;;6.60;99.90;;;;;;5047301;28;20356;-64
2022/01/23 14:36:21;;;;;;;2.13;1.30;;;6.60;99.90;;;;;;5047292;28;20044;-65
2022/01/23 14:38:59;;;;;;;3.20;1.55;;;6.60;99.90;;;;;;5045059;28;20455;-63
2022/01/23 14:41:28;;;;;;;2.83;1.38;;;6.60;99.90;;;;;;5048770;28;20138;-63
2022/01/23 14:43:54;;;;;;;1.85;1.15;;;6.60;99.90;;;;;;5046632;28;20143;-63
2022/01/23 14:46:19;;;;;;;2.28;1.30;;;6.60;99.90;;;;;;5045957;28;20490;-64
2022/01/23 14:48:48;;;;;;;1.80;1.10;;;6.60;99.90;;;;;;5045657;28;20076;-64
2022/01/23 14:51:21;;;;;;;3.17;1.30;;;6.60;99.90;;;;;;5045450;28;20064;-63
2022/01/23 14:53:48;;;;;;;2.92;1.17;;;6.50;99.90;;;;;;5046917;28;20120;-64
2022/01/23 14:56:14;;;;;;;2.63;1.10;;;6.50;99.90;;;;;;5046977;28;20397;-64
2022/01/23 14:58:41;;;;;;;2.63;1.20;;;6.50;99.90;;;;;;5028317;28;20056;-64
2022/01/23 15:01:10;;;;;;;1.52;1.00;;;6.50;99.90;;;;;;5047364;28;20044;-64
2022/01/23 15:03:36;;;;;;;1.27;0.90;;;6.50;99.90;;;;;;5042702;28;20121;-64
2022/01/23 15:06:03;;;;;;;2.47;1.00;;;6.50;99.90;;;;;;5029847;28;20128;-65
2022/01/23 15:08:29;;;;;;;1.70;0.80;;;6.50;99.90;;;;;;5042909;28;20152;-65
2022/01/23 15:10:59;;;;;;;2.53;0.70;;;6.50;99.90;;;;;;5049993;28;20078;-64
2022/01/23 15:13:27;;;;;;;1.40;0.90;;;6.50;99.90;;;;;;5050806;28;20045;-65
2022/01/23 15:15:55;;;;;;;1.38;0.95;;;6.50;99.90;;;;;;5049729;28;20148;-65
2022/01/23 15:18:21;;;;;;;1.70;0.90;;;6.40;99.90;;;;;;5047028;28;20045;-64
2022/01/23 15:20:47;;;;;;;3.92;1.85;;;6.50;99.90;;;;;;5050044;28;20110;-64
2022/01/23 15:23:14;;;;;;;3.47;1.65;;;6.40;99.90;;;;;;5032586;28;20072;-65
2022/01/23 15:25:41;;;;;;;3.20;1.60;;;6.40;99.90;;;;;;5051618;28;20064;-64
2022/01/23 15:28:07;;;;;;;2.50;1.60;;;6.40;99.90;;;;;;5048070;28;20041;-65
2022/01/23 15:30:33;;;;;;;4.47;1.92;;;6.40;99.90;;;;;;5051930;28;20037;-65
2022/01/23 15:33:01;;;;;;;4.22;2.00;;;6.40;99.90;;;;;;5049771;28;20043;-65
2022/01/23 15:35:27;;;;;;;4.63;2.33;;;6.40;99.90;;;;;;5054779;28;20049;-65
2022/01/23 15:37:53;;;;;;;5.15;2.20;;;6.30;99.90;;;;;;5047182;28;20408;-64
2022/01/23 15:40:20;;;;;;;4.43;2.20;;;6.30;99.90;;;;;;5020963;28;20037;-65
2022/01/23 15:42:49;;;;;;;4.78;2.15;;;6.30;99.90;;;;;;5051632;28;20052;-64
2022/01/23 15:45:15;;;;;;;2.72;1.70;;;6.30;99.90;;;;;;5049074;28;20128;-64
2022/01/23 15:47:40;;;;;;;2.17;1.73;;;6.30;99.90;;;;;;5050502;28;20037;-65
2022/01/23 15:50:08;;;;;;;3.67;1.95;;;6.30;99.90;;;;;;5049103;28;20491;-65
2022/01/23 15:52:34;;;;;;;3.50;1.80;;;6.30;99.90;;;;;;5049008;28;20077;-65
2022/01/23 15:54:59;;;;;;;3.17;1.60;;;6.30;99.90;;;;;;5050246;28;20087;-64
2022/01/23 15:57:26;;;;;;;2.92;1.90;;;6.20;99.90;;;;;;5048758;28;20037;-65
2022/01/23 15:59:51;;;;;;;3.95;1.75;;;6.20;99.90;;;;;;5048178;28;20675;-64
2022/01/23 16:02:17;;;;;;;2.72;1.40;;;6.20;99.90;;;;;;5050502;28;20041;-65
2022/01/23 16:04:43;;;;;;;2.42;1.52;;;6.20;99.90;;;;;;5048580;28;20040;-65
2022/01/23 16:07:16;;;;;;;2.05;1.50;;;6.20;99.90;;;;;;5065637;28;20206;-65
2022/01/23 16:09:43;;;;;;;2.88;1.65;;;6.10;99.90;;;;;;5066314;28;20090;-64
2022/01/23 16:12:10;;;;;;;2.78;1.65;;;6.20;99.90;;;;;;5047261;28;20148;-64
2022/01/23 16:14:35;;;;;;;2.88;1.83;;;6.20;99.90;;;;;;5050436;28;20040;-64
2022/01/23 16:17:01;;;;;;;3.10;1.85;;;6.20;99.90;;;;;;5047313;28;20083;-65
2022/01/23 16:19:26;;;;;;;3.67;2.10;;;6.20;99.90;;;;;;5049519;28;20037;-65
2022/01/23 16:21:54;;;;;;;4.05;1.98;;;6.20;99.90;;;;;;5042836;28;20048;-65
2022/01/23 16:24:21;;;;;;;2.67;1.80;;;6.10;99.90;;;;;;5048249;28;20044;-65